Impacts METAR Board
IDs:

KIAH - Houston/Bush Intl, TX, US

Updated at: 1300 UTC 21 Feb 2019
Potential Impact None Slight Moderate High
Time 21/01Z 21/02Z 21/03Z 21/04Z 21/05Z 21/06Z 21/07Z 21/08Z 21/09Z 21/10Z 21/11Z 21/12Z 21/13Z
Temp58 56 54 52 53 53 54 54 54 54 52 52 52
Dewpt44 45 44 44 44 45 45 46 47 47 49 48 48
Altim29.94 29.96 29.97 29.98 29.98 29.97 29.97 29.96 29.95 29.94 29.94 29.93 29.93
VIS10 10 10 10 10 10 10 10 10 10 10 10 7
CIG-- 90 90 90 90 60 60 55 50 50 38 32 26
CoverSCTBKNBKNBKNBKNOVCOVCOVCOVCOVCOVCOVCOVC
FltCatVFRVFRVFRVFRVFRVFRVFRVFRVFRVFRVFRVFRMVFR
WX-------------------------RA
WDir101020602040505070103605070
WSpd7 7 6 4 5 6 7 7 7 8 7 7 10
WGst-- -- -- -- -- -- -- -- -- -- -- -- --
Raw hourly METARs
KIAH 210053Z 01007KT 10SM FEW070 SCT250 14/07 A2994 RMK AO2 SLP137 T01440067
KIAH 210153Z 01007KT 10SM FEW070 BKN090 BKN250 13/07 A2996 RMK AO2 SLP147 T01330072
KIAH 210253Z 02006KT 10SM FEW070 BKN090 BKN250 12/07 A2997 RMK AO2 SLP150 T01220067 53012
KIAH 210353Z 06004KT 10SM SCT070 BKN090 BKN250 11/07 A2998 RMK AO2 SLP153 T01110067
KIAH 210453Z 02005KT 10SM SCT070 BKN090 BKN250 12/07 A2998 RMK AO2 SLP151 T01170067
KIAH 210553Z 04006KT 10SM BKN060 OVC250 12/07 A2997 RMK AO2 SLP150 T01170072 10161 20111 401830072 50001
KIAH 210653Z 05007KT 10SM BKN060 BKN100 OVC250 12/07 A2997 RMK AO2 SLP149 T01220072
KIAH 210753Z 05007KT 10SM BKN055 OVC080 12/08 A2996 RMK AO2 SLP146 T01220078
KIAH 210853Z 07007KT 10SM OVC050 12/08 A2995 RMK AO2 SLP142 T01220083 58007
KIAH 210953Z 01008KT 10SM OVC050 12/08 A2994 RMK AO2 SLP138 OCNL LTGIC DSNT SW W CB DSNT SW W MOV NE T01220083
KIAH 211053Z 36007KT 10SM OVC038 11/09 A2994 RMK AO2 LTG DSNT NW-NE RAB14E39 SLP139 P0000 T01110094
KIAH 211153Z 05007KT 10SM OVC032 11/09 A2993 RMK AO2 SLP137 60000 T01110089 10122 20111 56006
KIAH 211253Z 07010KT 7SM -RA BKN026 OVC050 11/09 A2993 RMK AO2 LTG DSNT E RAB44 SLP135 CB DSNT E MOV NE P0000 T01110089



Page loaded:  13:39 UTC  |   05:39 AM Pacific  |   06:39 AM Mountain  |   07:39 AM Central  |   08:39 AM Eastern

 

ADVISORIES

FORECASTS

FORECASTS

OBSERVATIONS

USER TOOLS

ABOUT US